Tiempo atmosférico en la estación meteorológica de Aller, Asturias (750 m.)



Fecha
DESCASC
Temp. máxima en grados centígrados (hora)
DESCASC
Temp. mínima en grados centígrados (hora)
DESCASC
Temp. media en grados centígrados
DESCASC
Racha de viento máxima en m/sg (hora)
DESCASC
Velocidad máxima media en intervalos de 10 minutos(hora)
DESCASC
Precipitaciones diarias en mm
DESCASC
Precipitaciones de 00:00 a 06:00 en mm
DESCASC
Precipitaciones de 06:00 a 12:00 en mm
DESCASC
Precipitaciones de 12:00 a 18:00 en mm
DESCASC
Precipitaciones de 18:00 a 24:00 en mm
DESCASC

Gráficas

Temp. máximas Temp. mínimas Temp. medias Precipitaciones Rachas de viento máximas Velocidades máximas media en intervalos de 10 minutos

Datos horarios

Fecha y hora oficial Temperatura (ºC) Velocidad del viento (km/h) Dirección del viento Racha (km/h) Dirección de racha Precipitación (mm) Presión (hPa) Tendencia (hPa) Humedad (%)
2019-04-23 23:00:00 3.7 4 Sudeste 8 Sudeste 0 -- -- 94
2019-04-23 22:00:00 5 3 Sudeste 8 Este 0 -- -- 89
2019-04-23 21:00:00 7.6 3 Norte 8 Noroeste 0 -- -- 79
2019-04-23 20:00:00 8.1 3 Noroeste 9 Noroeste 0 -- -- 78
2019-04-23 19:00:00 8.6 6 Noroeste 26 Noroeste 0 -- -- 74
2019-04-23 18:00:00 10 3 Sudeste 22 Noroeste 0 -- -- 68
2019-04-23 17:00:00 10.1 4 Oeste 28 Norte 0.8 -- -- 73
2019-04-23 16:00:00 9.6 17 Norte 37 Norte 0 -- -- 67
2019-04-23 15:00:00 12.6 6 Sur 24 Sudeste 0 -- -- 46
2019-04-23 14:00:00 12.8 4 Noroeste 16 Noroeste 0 -- -- 41
2019-04-23 13:00:00 11.4 7 Noroeste 18 Noroeste 0 -- -- 53
2019-04-23 12:00:00 11.2 5 Este 27 Sudeste 0 -- -- 57
2019-04-23 11:00:00 9.8 5 Sudeste 23 Sudeste 0.2 -- -- 70
2019-04-23 10:00:00 9.1 3 Sudeste 14 Sur 0 -- -- 81
2019-04-23 09:00:00 8.1 2 Noroeste 9 Noroeste 0 -- -- 98
2019-04-23 08:00:00 7 3 Norte 5 Nordeste 0.2 -- -- 98
2019-04-23 07:00:00 7.3 0 Calma 4 Sur 0.4 -- -- 98
2019-04-23 06:00:00 7.4 2 Noroeste 13 Sudeste 0.2 -- -- 97
2019-04-23 05:00:00 7.5 2 Norte 11 Noroeste 0 -- -- 95
2019-04-23 04:00:00 7.6 3 Sudeste 9 Sudoeste 0.4 -- -- 95
2019-04-23 03:00:00 8.2 2 Noroeste 7 Noroeste 1 -- -- 92
2019-04-23 02:00:00 9 2 Norte 9 Sur 0.2 -- -- 95
2019-04-23 01:00:00 9.9 2 Sudeste 26 Sur 0.6 -- -- 90
2019-04-23 00:00:00 11.9 4 Norte 8 Noroeste 0 -- -- 73
2019-04-22 23:00:00 13.8 3 Sudeste 23 Sudeste 0 -- -- 59
2019-04-22 22:00:00 13.9 8 Este 27 Este 0 -- -- 55
2019-04-22 21:00:00 14.1 10 Este 26 Sudeste 0 -- -- 58
2019-04-22 20:00:00 15.8 9 Sudeste 34 Este 0 -- -- 50
2019-04-22 19:00:00 17.2 6 Este 22 Sur 0 -- -- 48
2019-04-22 18:00:00 18.4 9 Sudeste 27 Sudeste 0 -- -- 44
2019-04-22 17:00:00 18.2 8 Nordeste 19 Nordeste 0 -- -- 42
2019-04-22 16:00:00 17 5 Norte 19 Este 0 -- -- 48
2019-04-22 15:00:00 18.3 5 Nordeste 24 Este 0 -- -- 43
2019-04-22 14:00:00 16.2 10 Este 20 Este 0 -- -- 47
2019-04-22 13:00:00 16.7 4 Noroeste 14 Sudeste 0 -- -- 44
2019-04-22 12:00:00 15.3 6 Este 21 Sudeste 0 -- -- 45
2019-04-22 11:00:00 13.1 9 Sudeste 20 Este 0 -- -- 57
2019-04-22 10:00:00 8 5 Este 12 Este 0 -- -- 79
2019-04-22 09:00:00 5.2 5 Sudeste 10 Sudeste 0 -- -- 92
2019-04-22 08:00:00 4 3 Sudeste 10 Sudeste 0 -- -- 94
2019-04-22 07:00:00 4.1 3 Sudeste 13 Sudeste 0 -- -- 93
2019-04-22 06:00:00 3.8 4 Sudeste 11 Sudeste 0 -- -- 95
2019-04-22 05:00:00 4 3 Sudeste 10 Sudeste 0 -- -- 93
2019-04-22 04:00:00 4.1 4 Sudeste 8 Sudeste 0 -- -- 94
2019-04-22 03:00:00 4.8 4 Sudeste 10 Sudeste 0 -- -- 92
2019-04-22 02:00:00 5.2 4 Sudeste 12 Sudeste 0 -- -- 91
2019-04-22 01:00:00 5.6 5 Sudeste 9 Sudeste 0 -- -- 90
2019-04-22 00:00:00 6 5 Sudeste 9 Sudeste 0 -- -- 88
2019-04-21 23:00:00 7.2 4 Sudeste 9 Este 0 -- -- 84
2019-04-21 22:00:00 9.7 2 Este 11 Noroeste 0 -- -- 73
2019-04-21 21:00:00 12.7 4 Noroeste 18 Oeste 0 -- -- 59
2019-04-21 20:00:00 14.1 6 Noroeste 22 Noroeste 0 -- -- 53
2019-04-21 19:00:00 14.8 7 Noroeste 23 Noroeste 0 -- -- 53
2019-04-21 18:00:00 15.3 12 Noroeste 25 Noroeste 0 -- -- 51
2019-04-21 17:00:00 16.3 10 Noroeste 23 Oeste 0 -- -- 48
2019-04-21 16:00:00 15.6 8 Noroeste 24 Oeste 0 -- -- 50
2019-04-21 15:00:00 16.2 10 Noroeste 24 Noroeste 0 -- -- 54
2019-04-21 14:00:00 15 8 Noroeste 28 Noroeste 0 -- -- 55
2019-04-21 13:00:00 15.5 14 Noroeste 26 Noroeste 0 -- -- 60
2019-04-21 12:00:00 13.1 7 Noroeste 14 Noroeste 0 -- -- 64
2019-04-21 11:00:00 11.4 3 Noroeste 10 Noroeste 0 -- -- 67
2019-04-21 10:00:00 8.2 2 Este 7 Sudeste 0 -- -- 88
2019-04-21 09:00:00 5.7 2 Oeste 5 Sudeste 0 -- -- 93
2019-04-21 08:00:00 4.5 5 Sudeste 9 Sudeste 0 -- -- 92
2019-04-21 07:00:00 3.9 4 Sudeste 10 Sudeste 0 -- -- 93
2019-04-21 06:00:00 4.3 5 Sudeste 11 Sudeste 0 -- -- 92
2019-04-21 05:00:00 4.7 6 Sudeste 10 Sudeste 0 -- -- 89
2019-04-21 04:00:00 4.8 4 Sudeste 10 Sudeste 0 -- -- 91
2019-04-21 03:00:00 5.5 5 Sudeste 9 Sudeste 0 -- -- 88
2019-04-21 02:00:00 6.3 6 Sudeste 11 Sudeste 0 -- -- 85
2019-04-21 01:00:00 6.6 7 Sudeste 11 Sudeste 0 -- -- 84
2019-04-21 00:00:00 7.2 8 Sudeste 11 Sudeste 0 -- -- 84
2019-04-20 23:00:00 8.7 5 Sudeste 9 Sudeste 0 -- -- 78
2019-04-20 22:00:00 11.6 4 Norte 12 Noroeste 0 -- -- 67
2019-04-20 21:00:00 14 0 Calma 14 Oeste 0 -- -- 61
2019-04-20 20:00:00 16.4 8 Noroeste 25 Noroeste 0 -- -- 48
2019-04-20 19:00:00 19.1 5 Noroeste 33 Oeste 0 -- -- 47
2019-04-20 18:00:00 19.6 6 Oeste 27 Noroeste 0 -- -- 43
2019-04-20 17:00:00 19.6 9 Sur 31 Sur 0 -- -- 41
2019-04-20 16:00:00 20.4 11 Sur 45 Oeste 0 -- -- 39
2019-04-20 15:00:00 20.5 10 Noroeste 39 Noroeste 0 -- -- 39
2019-04-20 14:00:00 19.3 13 Noroeste 23 Noroeste 0 -- -- 51
2019-04-20 13:00:00 18.1 10 Noroeste 17 Noroeste 0 -- -- 55
2019-04-20 12:00:00 16.1 9 Noroeste 16 Noroeste 0 -- -- 65
2019-04-20 11:00:00 13.2 7 Noroeste 13 Noroeste 0 -- -- 74
2019-04-20 10:00:00 7.4 0 Calma 6 Sudeste 0 -- -- 99
2019-04-20 09:00:00 6.2 0 Calma 13 Sudeste 0 -- -- 97
2019-04-20 08:00:00 5.5 4 Sudeste 9 Sudeste 0 -- -- 97
2019-04-20 07:00:00 5.9 8 Sudeste 12 Sudeste 0 -- -- 96
2019-04-20 06:00:00 5.9 3 Sur 9 Sudeste 0 -- -- 95
2019-04-20 05:00:00 6.2 5 Sudeste 10 Sudeste 0 -- -- 96
2019-04-20 04:00:00 6.7 7 Sudeste 10 Sudeste 0 -- -- 95
2019-04-20 03:00:00 7.1 8 Sudeste 12 Sudeste 0 -- -- 96
2019-04-20 02:00:00 8 4 Sudeste 11 Este 0 -- -- 94
2019-04-20 01:00:00 8.9 5 Sudeste 8 Sudeste 0 -- -- 94
2019-04-20 00:00:00 11 2 Sudeste 6 Sudeste 0 -- -- 93
2019-04-19 23:00:00 11 0 Calma 6 Sur 0 -- -- 95
2019-04-19 22:00:00 11 0 Calma 6 Sudeste 0 -- -- 91
2019-04-19 21:00:00 12.6 0 Calma 9 Noroeste 0 -- -- 88
2019-04-19 20:00:00 13.9 8 Noroeste 14 Noroeste 0 -- -- 81
2019-04-19 19:00:00 14.1 7 Norte 19 Noroeste 0 -- -- 81
2019-04-19 18:00:00 15.1 12 Noroeste 22 Noroeste 0 -- -- 80
2019-04-19 17:00:00 15.5 12 Noroeste 22 Noroeste 0 -- -- 76
2019-04-19 16:00:00 15.3 12 Norte 27 Noroeste 0 -- -- 76
2019-04-19 15:00:00 16.4 13 Noroeste 25 Noroeste 0 -- -- 72
2019-04-19 14:00:00 16.7 9 Sudeste 18 Sur 0 -- -- 60
2019-04-19 13:00:00 14 5 Norte 10 Noroeste 0 -- -- 75
2019-04-19 12:00:00 12.5 5 Noroeste 15 Noroeste 0 -- -- 82
2019-04-19 11:00:00 11 3 Noroeste 8 Noroeste 0 -- -- 89
2019-04-19 10:00:00 9.1 0 Calma 5 Noroeste 0 -- -- 99
2019-04-19 09:00:00 8.4 0 Calma 4 Noroeste 0 -- -- 100
2019-04-19 08:00:00 8.1 0 Calma 3 Sudeste 0 -- -- 100
2019-04-19 07:00:00 8.1 0 Calma 3 Noroeste 0 -- -- 100
2019-04-19 06:00:00 8.1 0 Calma 6 Sur 0.2 -- -- 99
2019-04-19 05:00:00 8.1 2 Noroeste 5 Norte 0 -- -- 99
2019-04-19 04:00:00 8.2 2 Noroeste 5 Norte 0 -- -- 99
2019-04-19 03:00:00 8.2 2 Norte 5 Norte 0.4 -- -- 99
2019-04-19 02:00:00 8.2 2 Norte 8 Norte 0.4 -- -- 98
2019-04-19 01:00:00 8.3 3 Norte 8 Nordeste 0.4 -- -- 98
2019-04-19 00:00:00 8.5 4 Norte 9 Noroeste 0.2 -- -- 98
2019-04-18 23:00:00 8.6 5 Norte 10 Norte 0.6 -- -- 98
2019-04-18 22:00:00 8.8 4 Norte 9 Noroeste 0.8 -- -- 97
2019-04-18 21:00:00 9.2 2 Nordeste 5 Norte 1 -- -- 96
2019-04-18 20:00:00 9.6 2 Norte 4 Norte 1 -- -- 93
2019-04-18 19:00:00 10.1 0 Calma 8 Noroeste 0.6 -- -- 88
2019-04-18 18:00:00 10.7 4 Noroeste 8 Noroeste 1.2 -- -- 89
2019-04-18 17:00:00 11.5 3 Noroeste 12 Sur 1.4 -- -- 88
2019-04-18 16:00:00 12.5 3 Sur 17 Noroeste 0.4 -- -- 80
2019-04-18 15:00:00 14 5 Noroeste 11 Noroeste 0 -- -- 65
2019-04-18 14:00:00 13.2 3 Noroeste 5 Oeste 0 -- -- 67
2019-04-18 13:00:00 12.8 4 Noroeste 8 Noroeste 0 -- -- 67
2019-04-18 12:00:00 12.7 3 Norte 6 Nordeste 0 -- -- 66
2019-04-18 11:00:00 10.9 3 Sudeste 5 Sudeste 0 -- -- 83
2019-04-18 10:00:00 9.3 3 Noroeste 12 Norte 0 -- -- 97
2019-04-18 09:00:00 8.2 2 Sur 8 Noroeste 0 -- -- 99
2019-04-18 08:00:00 7.9 4 Noroeste 10 Sur 0 -- -- 99
2019-04-18 07:00:00 7.6 2 Norte 5 Noroeste 0 -- -- 99
2019-04-18 06:00:00 8 0 Calma 9 Noroeste 0.2 -- -- 98
2019-04-18 05:00:00 8.4 4 Oeste 10 Noroeste 0.6 -- -- 97
2019-04-18 04:00:00 9 2 Sudeste 18 Este 0.6 -- -- 95
2019-04-18 03:00:00 9.1 2 Este 10 Este 0.4 -- -- 96
2019-04-18 02:00:00 9.5 2 Nordeste 19 Sur 1.4 -- -- 93
2019-04-18 01:00:00 10.6 2 Este 17 Sur 2 -- -- 88
2019-04-18 00:00:00 11 3 Noroeste 11 Noroeste 0.6 -- -- 95
2019-04-17 23:00:00 11.4 3 Este 9 Sudoeste 1 -- -- 94
2019-04-17 22:00:00 12.1 2 Nordeste 15 Sur 1.4 -- -- 90
2019-04-17 21:00:00 15.3 8 Sudeste 42 Sudeste 0 -- -- 59
2019-04-17 20:00:00 15.4 6 Sudeste 33 Sudeste 0.4 -- -- 61
2019-04-17 19:00:00 19.4 7 Este 36 Sur 0 -- -- 43
2019-04-17 18:00:00 20.8 7 Sudeste 32 Sur 0 -- -- 40
2019-04-17 17:00:00 19.5 13 Sudeste 35 Nordeste 0 -- -- 42
2019-04-17 16:00:00 18.6 8 Sudeste 41 Sur 0 -- -- 46
2019-04-17 15:00:00 18.6 6 Sudeste 32 Sudeste 0 -- -- 45
2019-04-17 14:00:00 18.8 12 Sudeste 49 Sudeste 0 -- -- 44
2019-04-17 13:00:00 19.3 12 Sudeste 38 Sudeste 0 -- -- 43
2019-04-17 12:00:00 18.2 12 Este 36 Sudeste 0 -- -- 43
2019-04-17 11:00:00 17.4 9 Este 44 Sudeste 0 -- -- 46
2019-04-17 10:00:00 15.3 9 Sudeste 33 Este 0 -- -- 47
2019-04-17 09:00:00 14.5 13 Sudeste 37 Sur 0 -- -- 49
2019-04-17 08:00:00 13.6 4 Sudeste 28 Sur 0 -- -- 54
2019-04-17 07:00:00 14.9 11 Sudeste 35 Sur 0 -- -- 45
2019-04-17 06:00:00 12.3 4 Este 28 Este 0 -- -- 54
2019-04-17 05:00:00 15.6 5 Sudoeste 28 Sur 0 -- -- 44
2019-04-17 04:00:00 16.4 9 Sudeste 30 Sudeste 0 -- -- 42
2019-04-17 03:00:00 16.3 9 Sudeste 33 Sudeste 0 -- -- 42
2019-04-17 02:00:00 16.3 5 Sur 34 Sur 0 -- -- 43
2019-04-17 01:00:00 14.2 7 Sur 27 Nordeste 0 -- -- 47
2019-04-17 00:00:00 15.3 8 Este 35 Sur 0 -- -- 42
2019-04-16 23:00:00 13.1 5 Sudeste 16 Sudoeste 0 -- -- 50
2019-04-16 22:00:00 12.5 2 Sudeste 13 Sur 0 -- -- 61
2019-04-16 21:00:00 14.2 2 Norte 19 Sur 0 -- -- 58
2019-04-16 20:00:00 15.9 5 Sudeste 18 Sudeste 0 -- -- 45
2019-04-16 19:00:00 18.1 6 Sudeste 19 Sur 0 -- -- 36
2019-04-16 18:00:00 18.1 6 Sudeste 23 Sudeste 0 -- -- 35
2019-04-16 17:00:00 18.7 7 Sudeste 22 Este 0 -- -- 32
2019-04-16 16:00:00 19.5 7 Este 28 Este 0 -- -- 37
2019-04-16 15:00:00 18 7 Sudeste 21 Sur 0 -- -- 43
2019-04-16 14:00:00 17.2 6 Sudeste 25 Sudeste 0 -- -- 41
2019-04-16 13:00:00 17.2 7 Sudeste 19 Sudeste 0 -- -- 40
2019-04-16 12:00:00 15.3 4 Oeste 12 Noroeste 0 -- -- 43
2019-04-16 11:00:00 10.8 2 Norte 13 Nordeste 0 -- -- 78
2019-04-16 10:00:00 6.9 5 Nordeste 24 Nordeste 0 -- -- 78
2019-04-16 09:00:00 3 3 Noroeste 9 Sur 0 -- -- 100
2019-04-16 08:00:00 2.3 3 Sudeste 7 Sudeste 0 -- -- 99
2019-04-16 07:00:00 2.5 5 Sudeste 9 Sudeste 0.2 -- -- 98
2019-04-16 06:00:00 3 3 Sudeste 9 Sudeste 0 -- -- 98
2019-04-16 05:00:00 3.6 3 Oeste 9 Sudeste 0 -- -- 97
2019-04-16 04:00:00 4.3 4 Sudeste 9 Sudeste 0 -- -- 97
2019-04-16 03:00:00 5.8 4 Sudeste 7 Sudeste 0 -- -- 95
2019-04-16 02:00:00 6.7 0 Calma 4 Noroeste 0 -- -- 97
2019-04-16 01:00:00 7.7 0 Calma 4 Sudeste 0 -- -- 97
2019-04-16 00:00:00 8.2 2 Noroeste 4 Noroeste 0 -- -- 98
2019-04-15 23:00:00 8.3 4 Norte 14 Norte 0.2 -- -- 97
2019-04-15 22:00:00 8.6 4 Norte 12 Noroeste 2.6 -- -- 96
2019-04-15 21:00:00 9.3 4 Sudeste 21 Noroeste 2.8 -- -- 92
2019-04-15 20:00:00 11.6 5 Noroeste 27 Noroeste 0 -- -- 79
2019-04-15 19:00:00 13.2 10 Norte 32 Noroeste 0.2 -- -- 78
2019-04-15 18:00:00 13.6 2 Sudoeste 32 Noroeste 0 -- -- 77
2019-04-15 17:00:00 15.9 14 Noroeste 32 Este 0 -- -- 73
2019-04-15 16:00:00 19.7 6 Noroeste 32 Este 0 -- -- 48
2019-04-15 15:00:00 20.5 17 Este 42 Sudeste 0 -- -- 46
2019-04-15 14:00:00 17.4 13 Este 30 Este 2 -- -- 60
2019-04-15 13:00:00 14.3 2 Este 17 Este 2 -- -- 87
2019-04-15 12:00:00 14.7 3 Oeste 33 Sudeste 4 -- -- 83
2019-04-15 11:00:00 17.5 7 Este 24 Este 0 -- -- 59
2019-04-15 10:00:00 16.8 4 Sudeste 22 Sudeste 0 -- -- 65
2019-04-15 09:00:00 16.8 9 Sudeste 24 Nordeste 0 -- -- 59
2019-04-15 08:00:00 16.4 9 Sudeste 28 Sudeste 0 -- -- 60
2019-04-15 07:00:00 16.3 6 Sudeste 22 Este 0 -- -- 63
2019-04-15 06:00:00 16.7 8 Sudeste 28 Sur 0 -- -- 61
2019-04-15 05:00:00 16.4 9 Este 29 Este 0 -- -- 62
2019-04-15 04:00:00 15.8 8 Sudeste 24 Sudeste 0 -- -- 65
2019-04-15 03:00:00 14.3 3 Noroeste 21 Este 0 -- -- 72
2019-04-15 02:00:00 13 5 Este 19 Noroeste 0 -- -- 78
2019-04-15 01:00:00 11.6 8 Noroeste 18 Oeste 0 -- -- 91
2019-04-15 00:00:00 11.4 3 Norte 8 Nordeste 0 -- -- 92
2019-04-14 23:00:00 12.2 4 Sudeste 8 Sudeste 0 -- -- 88
2019-04-14 22:00:00 13.2 3 Sudeste 10 Sudeste 0 -- -- 85
2019-04-14 21:00:00 15.8 0 Calma 10 Norte 0 -- -- 76
2019-04-14 20:00:00 17.8 7 Norte 17 Noroeste 0 -- -- 71
2019-04-14 19:00:00 19.5 9 Noroeste 17 Noroeste 0 -- -- 66
2019-04-14 18:00:00 21.1 8 Noroeste 17 Noroeste 0 -- -- 59
2019-04-14 17:00:00 20.8 9 Noroeste 15 Noroeste 0 -- -- 58
2019-04-14 16:00:00 21.9 8 Noroeste 16 Noroeste 0 -- -- 56
2019-04-14 15:00:00 22.3 12 Noroeste 22 Noroeste 0 -- -- 57
2019-04-14 14:00:00 21.5 9 Noroeste 18 Noroeste 0 -- -- 53
2019-04-14 13:00:00 20.6 6 Noroeste 18 Noroeste 0 -- -- 53
2019-04-14 12:00:00 19.4 8 Noroeste 14 Noroeste 0 -- -- 59
2019-04-14 11:00:00 16.6 4 Noroeste 9 Noroeste 0 -- -- 62
2019-04-14 10:00:00 12.2 3 Sudeste 6 Sudeste 0 -- -- 83
2019-04-14 09:00:00 10.7 4 Sudeste 9 Sudeste 0 -- -- 87
2019-04-14 08:00:00 9.9 6 Sudeste 12 Sur 0 -- -- 86
2019-04-14 07:00:00 8.6 3 Sudeste 12 Sudeste 0 -- -- 89
2019-04-14 06:00:00 8 5 Sudeste 11 Sudeste 0 -- -- 90
2019-04-14 05:00:00 8.6 2 Este 11 Sudeste 0 -- -- 90
2019-04-14 04:00:00 8.8 7 Sudeste 12 Sudeste 0 -- -- 89
2019-04-14 03:00:00 9.8 4 Sudeste 11 Sudeste 0 -- -- 85
2019-04-14 02:00:00 10.5 2 Sudeste 9 Sudeste 0 -- -- 85
2019-04-14 01:00:00 11.1 3 Sudeste 8 Sudeste 0 -- -- 82
2019-04-14 00:00:00 11.6 0 Calma 6 Sudeste 0 -- -- 80
2019-04-13 23:00:00 12.2 4 Sudeste 8 Sudeste 0 -- -- 78
2019-04-13 22:00:00 13.3 0 Calma 11 Noroeste 0 -- -- 72
2019-04-13 21:00:00 14.6 5 Norte 13 Norte 0 -- -- 67
2019-04-13 20:00:00 15.8 8 Norte 16 Norte 0 -- -- 63
2019-04-13 19:00:00 17.4 2 Norte 24 Noroeste 0 -- -- 58
2019-04-13 18:00:00 19.4 12 Noroeste 23 Noroeste 0 -- -- 52
2019-04-13 17:00:00 20.3 15 Noroeste 24 Noroeste 0 -- -- 47
2019-04-13 16:00:00 21.5 4 Sur 16 Noroeste 0 -- -- 33
2019-04-13 15:00:00 21.2 5 Sur 13 Noroeste 0 -- -- 30
2019-04-13 14:00:00 20.3 5 Noroeste 20 Sudeste 0 -- -- 29
2019-04-13 13:00:00 19.4 4 Este 16 Sudeste 0 -- -- 33
2019-04-13 12:00:00 17.9 4 Sudeste 14 Sur 0 -- -- 40
2019-04-13 11:00:00 13.1 5 Este 12 Este 0 -- -- 57
2019-04-13 10:00:00 6.3 3 Este 10 Sudeste 0 -- -- 85
2019-04-13 09:00:00 4.4 6 Sudeste 10 Sudeste 0 -- -- 90
2019-04-13 08:00:00 5 0 Calma 11 Sudeste 0 -- -- 86
2019-04-13 07:00:00 4.3 6 Sudeste 9 Sudeste 0 -- -- 89
2019-04-13 06:00:00 3.6 5 Sudeste 9 Sudeste 0 -- -- 91
2019-04-13 05:00:00 4.9 5 Sudeste 14 Sudeste 0 -- -- 81
2019-04-13 04:00:00 4.5 7 Sudeste 12 Sudeste 0 -- -- 87
2019-04-13 03:00:00 4.3 8 Sudeste 12 Sur 0 -- -- 90
2019-04-13 02:00:00 4.8 6 Sudeste 11 Sudeste 0 -- -- 89
2019-04-13 01:00:00 5.2 5 Sudeste 11 Sudeste 0 -- -- 91
2019-04-13 00:00:00 6.1 6 Sudeste 9 Sudeste 0 -- -- 91
2019-04-12 23:00:00 7.1 6 Sudeste 10 Sudeste 0 -- -- 88
2019-04-12 22:00:00 8.3 5 Sudeste 8 Sudeste 0 -- -- 86
2019-04-12 21:00:00 11.5 3 Norte 13 Norte 0 -- -- 76
2019-04-12 20:00:00 13.3 8 Norte 21 Noroeste 0 -- -- 68
2019-04-12 19:00:00 16 12 Noroeste 19 Noroeste 0 -- -- 54
2019-04-12 18:00:00 18.7 10 Noroeste 18 Noroeste 0 -- -- 45
2019-04-12 17:00:00 18.1 12 Noroeste 21 Noroeste 0 -- -- 42
2019-04-12 16:00:00 17.9 14 Noroeste 23 Noroeste 0 -- -- 41
2019-04-12 15:00:00 17 6 Noroeste 14 Noroeste 0 -- -- 35
2019-04-12 14:00:00 15.5 6 Noroeste 18 Noroeste 0 -- -- 34
2019-04-12 13:00:00 14.6 10 Noroeste 20 Noroeste 0 -- -- 35
2019-04-12 12:00:00 12.1 3 Sur 7 Sudeste 0 -- -- 43
2019-04-12 11:00:00 5.8 3 Este 7 Nordeste 0 -- -- 95
2019-04-12 10:00:00 0.7 0 Calma 10 Sudeste 0 -- -- 98
2019-04-12 09:00:00 0.2 8 Sudeste 12 Sudeste 0 -- -- 99
2019-04-12 08:00:00 -0.2 4 Sudeste 10 Sudeste 0 -- -- 99
2019-04-12 07:00:00 0.2 0 Calma 10 Sudeste 0 -- -- 98
2019-04-12 06:00:00 0.7 7 Sudeste 10 Sudeste 0 -- -- 99
2019-04-12 05:00:00 1.2 4 Sudeste 10 Sudeste 0 -- -- 98
2019-04-12 04:00:00 1.7 6 Sudeste 9 Sudeste 0 -- -- 98
2019-04-12 03:00:00 2.2 4 Sudeste 8 Sudeste 0 -- -- 98
2019-04-12 02:00:00 3.1 5 Sudeste 10 Sudeste 0 -- -- 98
2019-04-12 01:00:00 4 6 Sudeste 8 Sudeste 0 -- -- 98
2019-04-12 00:00:00 4.8 3 Sudeste 4 Sudeste 0 -- -- 98
2019-04-11 23:00:00 5.7 3 Sudeste 4 Sudeste 0 -- -- 98
2019-04-11 22:00:00 6.2 0 Calma 2 Sudeste 0 -- -- 97
2019-04-11 21:00:00 6.5 0 Calma 4 Nordeste 0.4 -- -- 95
2019-04-11 20:00:00 6.9 3 Nordeste 8 Noroeste 0.4 -- -- 92
2019-04-11 19:00:00 7.7 3 Nordeste 9 Noroeste 0.2 -- -- 89
2019-04-11 18:00:00 7.8 6 Noroeste 12 Noroeste 0 -- -- 86
2019-04-11 17:00:00 8.1 3 Sudeste 6 Noroeste 0 -- -- 76
2019-04-11 16:00:00 7.9 3 Norte 10 Norte 0 -- -- 78
2019-04-11 15:00:00 8.1 8 Noroeste 11 Noroeste 0 -- -- 81
2019-04-11 14:00:00 7.6 0 Calma 10 Noroeste 0 -- -- 80
2019-04-11 13:00:00 7.2 6 Norte 10 Noroeste 0 -- -- 83
2019-04-11 12:00:00 6.6 2 Noroeste 4 Noroeste 0 -- -- 85
2019-04-11 11:00:00 5.2 0 Calma 5 Noroeste 0 -- -- 94
2019-04-11 10:00:00 4.2 2 Sur 6 Sudeste 0 -- -- 100
2019-04-11 09:00:00 3 0 Calma 4 Este 0 -- -- 100
2019-04-11 08:00:00 2.6 3 Sudeste 7 Nordeste 0 -- -- 99
2019-04-11 07:00:00 2.7 0 Calma 8 Sudeste 0 -- -- 100
2019-04-11 06:00:00 2.1 0 Calma 8 Sudeste 0 -- -- 99
2019-04-11 05:00:00 3 2 Este 6 Sudeste 0 -- -- 98
2019-04-11 04:00:00 4 3 Este 6 Sudeste 0 -- -- 99
2019-04-11 03:00:00 4.1 0 Calma 6 Sudeste 0 -- -- 99
2019-04-11 02:00:00 4.5 0 Calma 6 Sudeste 0.2 -- -- 98
2019-04-11 01:00:00 4.7 3 Sudeste 5 Sur 1 -- -- 98
2019-04-11 00:00:00 5 0 Calma 12 Norte 1.4 -- -- 97
2019-04-10 23:00:00 5.3 6 Norte 12 Noroeste 0 -- -- 98
2019-04-10 22:00:00 5.8 6 Norte 15 Noroeste 0.4 -- -- 97
2019-04-10 21:00:00 6 7 Norte 12 Norte 0 -- -- 97
2019-04-10 20:00:00 6.2 5 Norte 15 Noroeste 0.4 -- -- 97
2019-04-10 19:00:00 6.5 8 Norte 19 Noroeste 1 -- -- 97
2019-04-10 18:00:00 6.7 10 Norte 17 Norte 1.4 -- -- 96
2019-04-10 17:00:00 6.7 9 Norte 22 Noroeste 2.2 -- -- 96
2019-04-10 16:00:00 6.7 4 Noroeste 9 Oeste 3.2 -- -- 96
2019-04-10 15:00:00 6.7 9 Norte 18 Norte 2.2 -- -- 95
2019-04-10 14:00:00 6.6 8 Norte 14 Norte 1.4 -- -- 96
2019-04-10 13:00:00 5.4 7 Noroeste 12 Noroeste 1.4 -- -- 97
2019-04-10 12:00:00 4 3 Sudeste 9 Sudeste 2 -- -- 94
2019-04-10 11:00:00 4.1 0 Calma 6 Noroeste 3.4 -- -- 89
2019-04-10 10:00:00 4.3 0 Calma 9 Sudeste 1.2 -- -- 96
2019-04-10 09:00:00 4.1 3 Sudeste 8 Sur 1 -- -- 97
2019-04-10 08:00:00 4.2 2 Sur 6 Norte 1 -- -- 98
2019-04-10 07:00:00 4.2 2 Este 8 Este 0.2 -- -- 98
2019-04-10 06:00:00 4 0 Calma 6 Este 0 -- -- 99
2019-04-10 05:00:00 4.2 3 Sudeste 6 Este 0.8 -- -- 99
2019-04-10 04:00:00 4 0 Calma 4 Este 0 -- -- 98
2019-04-10 03:00:00 4.2 3 Sudeste 7 Sudeste 0 -- -- 98
2019-04-10 02:00:00 3.8 0 Calma 8 Sudeste 0 -- -- 97
2019-04-10 01:00:00 5 3 Sudeste 6 Sudeste 0 -- -- 96
2019-04-10 00:00:00 5.8 0 Calma 3 Norte 0.2 -- -- 95
2019-04-09 23:00:00 6.3 0 Calma 8 Este 0.8 -- -- 95
2019-04-09 22:00:00 7.5 3 Norte 10 Noroeste 0.4 -- -- 86
2019-04-09 21:00:00 9.1 4 Norte 17 Norte 0 -- -- 70
2019-04-09 20:00:00 10.9 8 Noroeste 15 Norte 0 -- -- 60
2019-04-09 19:00:00 11.8 4 Norte 23 Noroeste 0 -- -- 55
2019-04-09 18:00:00 12.3 11 Noroeste 21 Noroeste 0 -- -- 54
2019-04-09 17:00:00 13 4 Noroeste 15 Noroeste 0 -- -- 54
2019-04-09 16:00:00 12.4 3 Sudeste 20 Noroeste 0 -- -- 53
2019-04-09 15:00:00 12 14 Noroeste 23 Norte 0 -- -- 59
2019-04-09 14:00:00 12 3 Sur 14 Noroeste 0 -- -- 53
2019-04-09 13:00:00 11.8 2 Oeste 11 Sur 0 -- -- 52
2019-04-09 12:00:00 10.2 3 Oeste 16 Sur 0 -- -- 56
2019-04-09 11:00:00 8.5 4 Sudeste 12 Sur 0 -- -- 64
2019-04-09 10:00:00 8.4 6 Sudeste 27 Sudeste 0 -- -- 62
2019-04-09 09:00:00 7.6 6 Sudeste 26 Sudeste 0 -- -- 67
2019-04-09 08:00:00 7.5 6 Sudeste 19 Sudeste 0 -- -- 67
2019-04-09 07:00:00 7.6 9 Sudeste 27 Sudeste 0 -- -- 64
2019-04-09 06:00:00 7.6 7 Sudeste 18 Sur 0 -- -- 63
2019-04-09 05:00:00 5.8 3 Sudeste 9 Sudeste 0 -- -- 75
2019-04-09 04:00:00 6.2 3 Sur 9 Sur 0 -- -- 69
2019-04-09 03:00:00 6.2 3 Este 10 Este 0 -- -- 70
2019-04-09 02:00:00 4.4 3 Sudeste 8 Sudeste 0 -- -- 82
2019-04-09 01:00:00 4.1 3 Sudeste 12 Sudeste 0 -- -- 84
2019-04-09 00:00:00 4.8 6 Sudeste 10 Sudeste 0 -- -- 88
2019-04-08 23:00:00 5.6 3 Sudeste 9 Norte 0 -- -- 86
2019-04-08 22:00:00 7.9 6 Norte 13 Norte 0 -- -- 79
2019-04-08 21:00:00 9.7 5 Norte 20 Norte 0 -- -- 69
2019-04-08 20:00:00 11.7 13 Norte 27 Norte 0 -- -- 44
2019-04-08 19:00:00 12.9 6 Noroeste 30 Noroeste 0 -- -- 41
2019-04-08 18:00:00 15.5 15 Norte 34 Noroeste 0 -- -- 40
2019-04-08 17:00:00 16.2 12 Noroeste 34 Sur 0 -- -- 37
2019-04-08 16:00:00 14.4 10 Sudeste 28 Sudeste 0 -- -- 38
2019-04-08 15:00:00 15 7 Sudeste 31 Sur 0 -- -- 42
2019-04-08 14:00:00 15.7 7 Oeste 26 Noroeste 0 -- -- 43
2019-04-08 13:00:00 13.1 4 Noroeste 14 Noroeste 0 -- -- 47
2019-04-08 12:00:00 13 5 Noroeste 15 Noroeste 0 -- -- 57
2019-04-08 11:00:00 10.3 3 Noroeste 10 Noroeste 0 -- -- 67
2019-04-08 10:00:00 6.5 6 Norte 10 Norte 0 -- -- 84
2019-04-08 09:00:00 5.1 4 Sudeste 9 Sudeste 0 -- -- 90
2019-04-08 08:00:00 4.7 4 Sudeste 8 Sudeste 0 -- -- 91
2019-04-08 07:00:00 5.3 3 Sudeste 9 Sudeste 0 -- -- 88
2019-04-08 06:00:00 5.3 2 Nordeste 10 Norte 0 -- -- 88
2019-04-08 05:00:00 5.9 2 Sur 6 Noroeste 0 -- -- 86
2019-04-08 04:00:00 7.2 8 Noroeste 36 Sudeste 0 -- -- 80
2019-04-08 03:00:00 8.3 15 Este 37 Sudeste 0 -- -- 68
2019-04-08 02:00:00 8.2 12 Este 28 Sudeste 0 -- -- 69
2019-04-08 01:00:00 8.1 9 Sudeste 32 Sur 0.2 -- -- 70
2019-04-08 00:00:00 6.3 3 Este 32 Sudeste 0.8 -- -- 91
2019-04-07 23:00:00 7.8 13 Sudeste 36 Sur 0 -- -- 73
2019-04-07 22:00:00 8.1 11 Sudeste 28 Sudeste 0 -- -- 67
2019-04-07 21:00:00 7.4 4 Norte 16 Sudeste 0 -- -- 71
2019-04-07 20:00:00 8 5 Sudeste 17 Sudeste 0.2 -- -- 76
2019-04-07 19:00:00 10.4 8 Este 23 Sudeste 0 -- -- 55
2019-04-07 18:00:00 12.1 8 Este 27 Sur 0 -- -- 43
2019-04-07 17:00:00 13.3 7 Sudeste 25 Este 0 -- -- 36
2019-04-07 16:00:00 14.3 10 Este 27 Este 0 -- -- 38
2019-04-07 15:00:00 13.8 5 Sur 23 Sudeste 0 -- -- 35
2019-04-07 14:00:00 12.7 5 Este 22 Sudeste 0 -- -- 39
2019-04-07 13:00:00 12 7 Sudeste 15 Sudeste 0 -- -- 35
2019-04-07 12:00:00 10.3 3 Sudeste 8 Este 0 -- -- 43
2019-04-07 11:00:00 6.2 4 Este 11 Nordeste 0 -- -- 81
2019-04-07 10:00:00 2.9 4 Sudeste 8 Sudeste 0 -- -- 94
2019-04-07 09:00:00 2.3 0 Calma 6 Sur 0 -- -- 95
2019-04-07 08:00:00 2.2 3 Sudeste 8 Sudeste 0 -- -- 96
2019-04-07 07:00:00 2.5 4 Sudeste 9 Sudeste 0 -- -- 96
2019-04-07 06:00:00 2.6 3 Sudeste 6 Sur 0 -- -- 97
2019-04-07 05:00:00 2.4 0 Calma 6 Sudeste 0 -- -- 96
2019-04-07 04:00:00 2.5 2 Sudeste 8 Sudeste 0 -- -- 96
2019-04-07 03:00:00 2 4 Sudeste 8 Sudeste 0 -- -- 98
2019-04-07 02:00:00 1.5 4 Sudeste 8 Sudeste 0 -- -- 97
2019-04-07 01:00:00 2.1 3 Este 7 Sudeste 0.2 -- -- 96
2019-04-07 00:00:00 2.9 4 Sudeste 7 Sur 0.4 -- -- 95
2019-04-06 23:00:00 3.3 4 Noroeste 12 Norte 0.6 -- -- 93
2019-04-06 22:00:00 3.7 6 Norte 15 Norte 0 -- -- 93
2019-04-06 21:00:00 3.9 4 Noroeste 17 Norte 1.4 -- -- 95
2019-04-06 20:00:00 4.5 10 Norte 27 Noroeste 1.2 -- -- 93
2019-04-06 19:00:00 5.7 7 Norte 11 Norte 0.2 -- -- 87
2019-04-06 18:00:00 6 3 Noroeste 15 Norte 0.6 -- -- 87
2019-04-06 17:00:00 6.7 5 Sudeste 12 Sudeste 0.4 -- -- 73
2019-04-06 16:00:00 5.3 6 Norte 42 Noroeste 1.4 -- -- 84
2019-04-06 15:00:00 12.6 9 Sudeste 27 Sudeste 0 -- -- 42
2019-04-06 14:00:00 10.4 5 Sudeste 22 Nordeste 0 -- -- 51
2019-04-06 13:00:00 9 8 Este 23 Sudeste 0 -- -- 53
2019-04-06 12:00:00 8.3 8 Este 28 Sur 0 -- -- 57
2019-04-06 11:00:00 6.9 7 Sudeste 26 Sudeste 0 -- -- 59
2019-04-06 10:00:00 6.1 9 Este 39 Sudeste 0 -- -- 59
2019-04-06 09:00:00 5.5 8 Este 27 Este 0 -- -- 62
2019-04-06 08:00:00 5 9 Sudeste 26 Este 0 -- -- 63
2019-04-06 07:00:00 3.9 5 Norte 12 Norte 0 -- -- 75
2019-04-06 06:00:00 2.9 3 Sudeste 9 Sudeste 0 -- -- 83
2019-04-06 05:00:00 1.7 6 Este 14 Sudeste 0 -- -- 82
2019-04-06 04:00:00 0.5 2 Sudeste 10 Este 0 -- -- 92
2019-04-06 03:00:00 0 6 Sudeste 10 Sudeste 0 -- -- 95
2019-04-06 02:00:00 0.4 0 Calma 8 Sudeste 0 -- -- 93
2019-04-06 01:00:00 1.4 0 Calma 9 Sudeste 0 -- -- 91
2019-04-06 00:00:00 2.4 0 Calma 6 Sudeste 0 -- -- 92
2019-04-05 23:00:00 2.5 3 Sudeste 5 Noroeste 0 -- -- 91
2019-04-05 22:00:00 4.3 0 Calma 13 Noroeste 0 -- -- 84
2019-04-05 21:00:00 5.9 6 Norte 18 Noroeste 0 -- -- 77
2019-04-05 20:00:00 7.6 9 Noroeste 26 Noroeste 0 -- -- 69
2019-04-05 19:00:00 9.1 5 Norte 18 Noroeste 0 -- -- 47
2019-04-05 18:00:00 10.1 6 Noroeste 22 Sudeste 0 -- -- 41
2019-04-05 17:00:00 11.9 10 Sudeste 23 Sudeste 0 -- -- 36
2019-04-05 16:00:00 11.2 7 Noroeste 30 Norte 0 -- -- 43
2019-04-05 15:00:00 10.7 10 Este 27 Sudeste 0 -- -- 40
2019-04-05 14:00:00 9.6 6 Sudeste 28 Este 0 -- -- 52
2019-04-05 13:00:00 9.2 9 Sudeste 24 Sudeste 0 -- -- 48
2019-04-05 12:00:00 8.3 6 Noroeste 23 Norte 0 -- -- 51
2019-04-05 11:00:00 6.1 10 Norte 22 Norte 0 -- -- 60
2019-04-05 10:00:00 2.6 5 Este 10 Este 0 -- -- 94
2019-04-05 09:00:00 2.5 4 Este 9 Nordeste 0 -- -- 96
2019-04-05 08:00:00 3.1 6 Sur 15 Sudeste 0.4 -- -- 93
2019-04-05 07:00:00 3 3 Oeste 8 Sudeste 0 -- -- 97
2019-04-05 06:00:00 3.3 4 Sudeste 9 Este 0 -- -- 95
2019-04-05 05:00:00 3.2 5 Este 9 Sudeste 0 -- -- 95
2019-04-05 04:00:00 3.1 2 Este 6 Este 0 -- -- 96
2019-04-05 03:00:00 3.3 4 Norte 9 Noroeste 0.4 -- -- 95
2019-04-05 02:00:00 4 2 Nordeste 20 Sudeste 1.4 -- -- 90
2019-04-05 01:00:00 5.3 8 Sudeste 19 Sudeste 0.2 -- -- 75
2019-04-05 00:00:00 5.7 5 Sudeste 21 Norte 0 -- -- 71
2019-04-04 23:00:00 6.2 5 Sudeste 25 Sudeste 0 -- -- 68
2019-04-04 22:00:00 6.6 6 Sudeste 23 Sudeste 0 -- -- 64
2019-04-04 21:00:00 6.4 4 Noroeste 26 Sur 0 -- -- 70
2019-04-04 20:00:00 6.5 7 Sudeste 19 Sudeste 0 -- -- 66
2019-04-04 19:00:00 6.5 4 Sudeste 18 Nordeste 0 -- -- 64
2019-04-04 18:00:00 6.7 6 Sur 21 Sudeste 0 -- -- 65
2019-04-04 17:00:00 7.6 7 Este 28 Este 0 -- -- 58
2019-04-04 16:00:00 8.4 9 Sudeste 24 Sudeste 0 -- -- 54
2019-04-04 15:00:00 9.8 4 Sudeste 20 Este 0 -- -- 52
2019-04-04 14:00:00 9.7 9 Este 24 Nordeste 0 -- -- 51
2019-04-04 13:00:00 9 4 Este 12 Sudeste 0 -- -- 51
2019-04-04 12:00:00 6.4 4 Este 10 Este 0 -- -- 79
2019-04-04 11:00:00 3.4 5 Este 9 Sudeste 0 -- -- 86
2019-04-04 10:00:00 0.3 4 Este 9 Este 0 -- -- 96
2019-04-04 09:00:00 0.3 0 Calma 8 Sudeste 0 -- -- 98
2019-04-04 08:00:00 -0.1 3 Este 5 Sudeste 0 -- -- 99
2019-04-04 07:00:00 0.1 3 Este 6 Sudeste 0 -- -- 100
2019-04-04 06:00:00 0.1 0 Calma 3 Sudeste 0.2 -- -- 100
2019-04-04 05:00:00 0 0 Calma 4 Noroeste 0.2 -- -- 100
2019-04-04 04:00:00 0 2 Norte 5 Noroeste 0.6 -- -- 100
2019-04-04 03:00:00 0.1 3 Noroeste 9 Norte 0.8 -- -- 99
2019-04-04 02:00:00 0.2 5 Norte 13 Norte 0.6 -- -- 99
2019-04-04 01:00:00 0.3 4 Sudeste 9 Norte 0 -- -- 99
2019-04-04 00:00:00 0.3 4 Noroeste 16 Noroeste 0.4 -- -- 99
2019-04-03 23:00:00 0.3 9 Norte 17 Norte 1 -- -- 98
2019-04-03 22:00:00 0.4 10 Norte 17 Norte 0.6 -- -- 99
2019-04-03 21:00:00 0.4 3 Noroeste 20 Norte 1.2 -- -- 98
2019-04-03 20:00:00 0.7 9 Norte 18 Norte 1.6 -- -- 97
2019-04-03 19:00:00 1.9 6 Norte 22 Norte 1.2 -- -- 97
2019-04-03 18:00:00 2.4 8 Norte 18 Noroeste 1.6 -- -- 94
2019-04-03 17:00:00 2 5 Este 21 Noroeste 1.8 -- -- 91
2019-04-03 16:00:00 2.4 10 Norte 33 Noroeste 0.8 -- -- 93
2019-04-03 15:00:00 3.4 6 Norte 18 Noroeste 2.8 -- -- 93
2019-04-03 14:00:00 1.6 14 Noroeste 33 Noroeste 1.2 -- -- 92
2019-04-03 13:00:00 3.7 11 Norte 27 Norte 0 -- -- 86
2019-04-03 12:00:00 1.8 12 Norte 22 Noroeste 0.8 -- -- 96
2019-04-03 11:00:00 1.8 12 Norte 26 Norte 1.2 -- -- 95
2019-04-03 10:00:00 2.3 10 Norte 22 Noroeste 0.6 -- -- 94
2019-04-03 09:00:00 2.8 9 Norte 20 Oeste 0.2 -- -- 91
2019-04-03 08:00:00 3 10 Norte 17 Noroeste 0.2 -- -- 93
2019-04-03 07:00:00 3 7 Norte 25 Norte 0.4 -- -- 93
2019-04-03 06:00:00 3.5 5 Norte 12 Norte 0 -- -- 96
2019-04-03 05:00:00 3.7 3 Noroeste 14 Norte 0 -- -- 96
2019-04-03 04:00:00 3.8 8 Norte 14 Noroeste 0.2 -- -- 96
2019-04-03 03:00:00 4.1 8 Norte 16 Noroeste 0.6 -- -- 97
2019-04-03 02:00:00 4.4 11 Norte 19 Norte 0.2 -- -- 96
2019-04-03 01:00:00 4.8 8 Norte 15 Noroeste 0 -- -- 98
2019-04-03 00:00:00 5 10 Norte 18 Noroeste 1 -- -- 98
2019-04-02 23:00:00 5.3 5 Norte 10 Norte 0.8 -- -- 98
2019-04-02 22:00:00 5.5 6 Norte 13 Norte 0.2 -- -- 97
2019-04-02 21:00:00 6 8 Norte 17 Norte 0.4 -- -- 95
2019-04-02 20:00:00 6.9 7 Norte 15 Noroeste 0.6 -- -- 95
2019-04-02 19:00:00 8.1 8 Norte 20 Norte 0 -- -- 85
2019-04-02 18:00:00 10.1 8 Noroeste 20 Noroeste 0 -- -- 71
2019-04-02 17:00:00 11.6 13 Noroeste 27 Noroeste 0 -- -- 66
2019-04-02 16:00:00 13.5 14 Noroeste 28 Noroeste 0 -- -- 61
2019-04-02 15:00:00 14.6 17 Noroeste 26 Noroeste 0 -- -- 59
2019-04-02 14:00:00 13.9 11 Noroeste 19 Noroeste 0 -- -- 62
2019-04-02 13:00:00 12.9 8 Noroeste 14 Noroeste 0 -- -- 62
2019-04-02 12:00:00 8.1 2 Noroeste 7 Noroeste 0 -- -- 80
2019-04-02 11:00:00 6.5 4 Noroeste 8 Noroeste 0 -- -- 79
2019-04-02 10:00:00 5.2 5 Sudeste 9 Sudeste 0 -- -- 84
2019-04-02 09:00:00 2.4 4 Sudeste 5 Sudeste 0 -- -- 93
2019-04-02 08:00:00 2.9 5 Sudeste 10 Sudeste 0 -- -- 88
2019-04-02 07:00:00 2.9 3 Sudeste 10 Sudeste 0 -- -- 89
2019-04-02 06:00:00 3.1 7 Sudeste 12 Sudeste 0 -- -- 87
2019-04-02 05:00:00 3.6 3 Sudeste 11 Sudeste 0 -- -- 89
2019-04-02 04:00:00 4 3 Sudeste 10 Sudeste 0 -- -- 88
2019-04-02 03:00:00 4.2 6 Sudeste 10 Sur 0 -- -- 85
2019-04-02 02:00:00 4.5 5 Sudeste 10 Sudeste 0 -- -- 84
2019-04-02 01:00:00 4.9 5 Sudeste 9 Sudeste 0 -- -- 84
2019-04-02 00:00:00 5.4 6 Sudeste 9 Sudeste 0 -- -- 80
2019-04-01 23:00:00 6.1 4 Sudeste 10 Sudeste 0 -- -- 79
2019-04-01 22:00:00 7.2 5 Sudeste 9 Sudeste 0 -- -- 74
2019-04-01 21:00:00 10.1 0 Calma 11 Noroeste 0 -- -- 65
2019-04-01 20:00:00 12.7 5 Noroeste 19 Noroeste 0 -- -- 55
2019-04-01 19:00:00 14 10 Noroeste 22 Noroeste 0 -- -- 53
2019-04-01 18:00:00 15.7 6 Noroeste 18 Noroeste 0 -- -- 41
2019-04-01 17:00:00 17.7 11 Noroeste 24 Noroeste 0 -- -- 41
2019-04-01 16:00:00 15.7 8 Noroeste 23 Noroeste 0 -- -- 39
2019-04-01 15:00:00 17.6 13 Noroeste 26 Noroeste 0 -- -- 45
2019-04-01 14:00:00 17.2 10 Noroeste 23 Noroeste -- -- -- 40
2019-04-01 13:00:00 16.5 11 Noroeste 18 Noroeste 0 -- -- 47
2019-04-01 12:00:00 -- 10 Noroeste 15 Noroeste -- -- -- --
2019-04-01 11:00:00 -- 2 Nordeste 6 Sudeste -- -- -- --
2019-04-01 10:00:00 -- 5 Sudeste 10 Sudeste -- -- -- --
2019-04-01 09:00:00 -- 5 Sudeste 8 Sudeste -- -- -- --
2019-04-01 08:00:00 -- 0 Calma 10 Sudeste -- -- -- --
2019-04-01 07:00:00 -- 5 Sudeste 9 Sudeste -- -- -- --
2019-04-01 06:00:00 -- 9 Sudeste 11 Sudeste -- -- -- --
2019-04-01 05:00:00 -- 7 Sudeste 10 Sudeste -- -- -- --
2019-04-01 04:00:00 -- 7 Sudeste 10 Sudeste -- -- -- --
2019-04-01 03:00:00 -- 6 Sudeste 12 Sudeste -- -- -- --
2019-04-01 02:00:00 -- 6 Sudeste 12 Sudeste -- -- -- --
2019-04-01 01:00:00 -- 4 Sudeste 9 Sudeste -- -- -- --
2019-04-01 00:00:00 -- 4 Sudeste 9 Sudeste -- -- -- --
2019-03-31 23:00:00 -- 2 Sudoeste 8 Sudeste -- -- -- --
2019-03-31 22:00:00 -- 5 Sudeste 12 Sudeste -- -- -- --
2019-03-31 21:00:00 -- 7 Sudeste 19 Sur -- -- -- --
2019-03-31 20:00:00 -- 12 Sur 26 Sur -- -- -- --
2019-03-31 19:00:00 -- 3 Noroeste 13 Noroeste -- -- -- --
2019-03-31 18:00:00 -- 9 Noroeste 26 Noroeste -- -- -- --
2019-03-31 17:00:00 -- 13 Norte 30 Noroeste -- -- -- --
2019-03-31 16:00:00 -- 7 Oeste 36 Sur -- -- -- --
2019-03-31 15:00:00 -- 6 Sur 22 Noroeste -- -- -- --
2019-03-31 14:00:00 -- 4 Noroeste 9 Noroeste -- -- -- --
2019-03-31 13:00:00 -- 4 Norte 17 Noroeste -- -- -- --
2019-03-31 12:00:00 -- 11 Noroeste 16 Noroeste -- -- -- --
2019-03-31 11:00:00 -- 2 Nordeste 10 Sudeste -- -- -- --
2019-03-31 10:00:00 -- 4 Sudeste 10 Sudeste -- -- -- --
2019-03-31 09:00:00 -- 5 Sudeste 10 Sudeste -- -- -- --
2019-03-31 08:00:00 -- 2 Sudeste 12 Sudeste -- -- -- --
2019-03-31 07:00:00 -- 5 Sudeste 12 Sudeste -- -- -- --
2019-03-31 06:00:00 -- 5 Sudeste 10 Sudeste -- -- -- --
2019-03-31 05:00:00 -- 7 Sudeste 11 Sudeste -- -- -- --
2019-03-31 03:00:00 -- 3 Sudeste 10 Sudeste -- -- -- --
2019-03-31 01:00:00 -- 6 Sudeste 9 Sudeste -- -- -- --
2019-03-31 00:00:00 -- 0 Calma 9 Sudeste -- -- -- --
2019-03-30 23:00:00 -- 2 Sudeste 6 Sur -- -- -- --
2019-03-30 22:00:00 -- 5 Sudeste 10 Sur -- -- -- --
2019-03-30 21:00:00 -- 4 Sudeste 9 Sudeste -- -- -- --
2019-03-30 20:00:00 -- 4 Norte 13 Noroeste -- -- -- --
2019-03-30 19:00:00 -- 2 Norte 8 Sudeste -- -- -- --
2019-03-30 18:00:00 -- 7 Sudeste 23 Sudeste -- -- -- --
2019-03-30 17:00:00 -- 4 Nordeste 15 Sudeste -- -- -- --
2019-03-30 16:00:00 -- 9 Noroeste 25 Noroeste -- -- -- --
2019-03-30 15:00:00 -- 4 Noroeste 10 Oeste -- -- -- --
2019-03-30 14:00:00 -- 3 Sur 16 Noroeste -- -- -- --
2019-03-30 13:00:00 -- 8 Noroeste 25 Noroeste -- -- -- --
2019-03-30 12:00:00 -- 4 Este 9 Oeste -- -- -- --
2019-03-30 11:00:00 -- 4 Norte 8 Oeste -- -- -- --
2019-03-30 10:00:00 -- 3 Este 10 Nordeste -- -- -- --
2019-03-30 09:00:00 -- 5 Este 17 Sudeste -- -- -- --
2019-03-30 08:00:00 -- 3 Noroeste 15 Este -- -- -- --
2019-03-30 07:00:00 -- 8 Sudeste 17 Sudeste -- -- -- --
2019-03-30 06:00:00 -- 6 Sudeste 17 Sudeste -- -- -- --
2019-03-30 05:00:00 -- 3 Sudeste 9 Noroeste -- -- -- --
2019-03-30 04:00:00 -- 0 Calma 17 Este -- -- -- --
2019-03-30 03:00:00 -- 6 Sudeste 13 Sudeste -- -- -- --
2019-03-30 02:00:00 -- 5 Sudeste 12 Sudeste -- -- -- --
2019-03-30 01:00:00 -- 6 Sudeste 13 Sudeste -- -- -- --
2019-03-30 00:00:00 -- 3 Sudeste 12 Sudeste -- -- -- --
2019-03-29 23:00:00 -- 6 Sudeste 13 Sudeste -- -- -- --
2019-03-29 22:00:00 -- 6 Sudeste 10 Sudeste -- -- -- --
2019-03-29 21:00:00 -- 5 Sudeste 11 Sudeste -- -- -- --
2019-03-29 20:00:00 -- 5 Sudeste 10 Norte -- -- -- --
2019-03-29 19:00:00 -- 3 Norte 15 Noroeste -- -- -- --
2019-03-29 18:00:00 -- 12 Noroeste 24 Noroeste -- -- -- --
2019-03-29 17:00:00 -- 14 Noroeste 24 Noroeste -- -- -- --
2019-03-29 16:00:00 -- 13 Noroeste 25 Noroeste -- -- -- --
2019-03-29 15:00:00 -- 15 Noroeste 25 Noroeste -- -- -- --
2019-03-29 14:00:00 -- 15 Noroeste 26 Noroeste -- -- -- --
2019-03-29 13:00:00 -- 16 Noroeste 24 Noroeste -- -- -- --
2019-03-29 12:00:00 -- 14 Noroeste 21 Noroeste -- -- -- --
2019-03-29 11:00:00 -- 4 Noroeste 10 Noroeste -- -- -- --
2019-03-29 10:00:00 -- 4 Noroeste 8 Sudeste -- -- -- --
2019-03-29 09:00:00 -- 4 Sudeste 10 Sudeste -- -- -- --
2019-03-29 08:00:00 -- 6 Sudeste 13 Sudeste -- -- -- --
2019-03-29 07:00:00 -- 7 Sudeste 12 Sudeste -- -- -- --
2019-03-29 06:00:00 -- 6 Sudeste 12 Sudeste -- -- -- --
2019-03-29 05:00:00 -- 4 Sudeste 12 Sudeste -- -- -- --
2019-03-29 04:00:00 -- 9 Sudeste 13 Sudeste -- -- -- --
2019-03-29 03:00:00 -- 5 Sudeste 12 Sudeste -- -- -- --
2019-03-29 02:00:00 -- 2 Sudeste 11 Sudeste -- -- -- --
2019-03-29 01:00:00 -- 6 Sudeste 12 Sudeste -- -- -- --
2019-03-29 00:00:00 -- 4 Sudeste 8 Este -- -- -- --
2019-03-28 23:00:00 -- 5 Sudeste 10 Sudeste -- -- -- --
2019-03-28 22:00:00 -- 5 Sudeste 9 Sudeste -- -- -- --
2019-03-28 21:00:00 -- 5 Sudeste 10 Sudeste -- -- -- --
2019-03-28 20:00:00 -- 3 Sudeste 14 Norte -- -- -- --
2019-03-28 19:00:00 -- 9 Norte 18 Noroeste -- -- -- --
2019-03-28 18:00:00 -- 11 Noroeste 24 Noroeste -- -- -- --
2019-03-28 17:00:00 -- 14 Noroeste 21 Noroeste -- -- -- --
2019-03-28 16:00:00 -- 14 Noroeste 24 Noroeste -- -- -- --
2019-03-28 15:00:00 -- 15 Noroeste 24 Noroeste -- -- -- --
2019-03-28 14:00:00 -- 14 Noroeste 22 Noroeste -- -- -- --
2019-03-28 13:00:00 -- 14 Noroeste 22 Noroeste -- -- -- --
2019-03-28 12:00:00 -- 10 Noroeste 16 Noroeste -- -- -- --
2019-03-28 11:00:00 -- 8 Noroeste 14 Noroeste -- -- -- --
2019-03-28 10:00:00 -- 3 Nordeste 8 Sudeste -- -- -- --
2019-03-28 09:00:00 -- 5 Sudeste 10 Sudeste -- -- -- --
2019-03-28 08:00:00 -- 5 Sudeste 10 Sudeste -- -- -- --
2019-03-28 07:00:00 -- 4 Sudeste 11 Sudeste -- -- -- --
2019-03-28 06:00:00 -- 3 Sudeste 11 Sudeste -- -- -- --
2019-03-28 05:00:00 -- 6 Sudeste 10 Sudeste -- -- -- --
2019-03-28 04:00:00 -- 2 Sudeste 9 Sudeste -- -- -- --
2019-03-28 03:00:00 -- 5 Sudeste 9 Sudeste -- -- -- --
2019-03-28 02:00:00 -- 3 Sudeste 8 Este -- -- -- --
2019-03-28 01:00:00 -- 6 Sudeste 9 Sudeste -- -- -- --
2019-03-28 00:00:00 -- 3 Sudeste 8 Sudeste -- -- -- --
2019-03-27 23:00:00 -- 6 Sudeste 9 Sudeste -- -- -- --
2019-03-27 22:00:00 -- 4 Sudeste 8 Sudeste -- -- -- --
2019-03-27 21:00:00 -- 4 Sudeste 8 Norte -- -- -- --
2019-03-27 20:00:00 -- 4 Norte 17 Noroeste -- -- -- --
2019-03-27 19:00:00 -- 9 Norte 22 Noroeste -- -- -- --
2019-03-27 18:00:00 -- 14 Noroeste 22 Noroeste -- -- -- --
2019-03-27 17:00:00 -- 14 Noroeste 23 Noroeste -- -- -- --
2019-03-27 16:00:00 -- 14 Noroeste 29 Noroeste -- -- -- --
2019-03-27 15:00:00 -- 14 Noroeste 27 Noroeste -- -- -- --
2019-03-27 14:00:00 -- 15 Noroeste 23 Noroeste -- -- -- --
2019-03-27 13:00:00 -- 13 Noroeste 22 Noroeste -- -- -- --
2019-03-27 12:00:00 -- 12 Noroeste 15 Noroeste -- -- -- --
2019-03-27 11:00:00 -- 8 Noroeste 11 Noroeste -- -- -- --
2019-03-27 10:00:00 -- 3 Este 8 Sudeste -- -- -- --
2019-03-27 09:00:00 -- 3 Sudeste 7 Sudeste -- -- -- --
2019-03-27 08:00:00 -- 3 Sudeste 9 Sudeste -- -- -- --
2019-03-27 07:00:00 -- 5 Sudeste 10 Sudeste -- -- -- --
2019-03-27 06:00:00 -- 6 Sudeste 10 Sudeste -- -- -- --
2019-03-27 05:00:00 -- 4 Sudeste 8 Sudeste -- -- -- --
2019-03-27 04:00:00 -- 3 Sudeste 6 Sudeste -- -- -- --
2019-03-27 03:00:00 -- 2 Sudeste 9 Sudeste -- -- -- --
2019-03-27 02:00:00 -- 5 Sudeste 11 Sudeste -- -- -- --
2019-03-27 01:00:00 -- 4 Sudeste 9 Sudeste -- -- -- --
2019-03-27 00:00:00 -- 5 Sudeste 12 Sudeste -- -- -- --
2019-03-26 23:00:00 -- 2 Sudeste 10 Sudeste -- -- -- --
2019-03-26 22:00:00 -- 4 Sudeste 7 Sudeste -- -- -- --
2019-03-26 21:00:00 -- 4 Sudeste 8 Sudeste -- -- -- --
2019-03-26 20:00:00 -- 2 Sur 14 Noroeste -- -- -- --
2019-03-26 19:00:00 -- 7 Norte 19 Noroeste -- -- -- --
2019-03-26 18:00:00 -- 12 Noroeste 23 Noroeste -- -- -- --
2019-03-26 17:00:00 -- 13 Noroeste 25 Noroeste -- -- -- --
2019-03-26 16:00:00 -- 14 Noroeste 23 Noroeste -- -- -- --
2019-03-26 15:00:00 -- 12 Noroeste 20 Noroeste -- -- -- --
2019-03-26 14:00:00 -- 12 Noroeste 22 Noroeste -- -- -- --
2019-03-26 13:00:00 -- 11 Noroeste 15 Noroeste -- -- -- --
2019-03-26 12:00:00 -- 7 Noroeste 14 Noroeste -- -- -- --
2019-03-26 11:00:00 -- 8 Noroeste 13 Noroeste -- -- -- --
2019-03-26 10:00:00 -- 3 Este 5 Nordeste -- -- -- --
2019-03-26 09:00:00 -- 2 Sudoeste 9 Sudeste -- -- -- --
2019-03-26 08:00:00 -- 5 Sudeste 8 Sudeste -- -- -- --
2019-03-26 07:00:00 -- 3 Sudeste 7 Sur -- -- -- --
2019-03-26 06:00:00 -- 0 Calma 8 Sudeste -- -- -- --
2019-03-26 05:00:00 -- 0 Calma 6 Sudeste -- -- -- --
2019-03-26 04:00:00 -- 3 Sudeste 5 Sur -- -- -- --
2019-03-26 03:00:00 -- 0 Calma 2 Nordeste -- -- -- --
2019-03-26 02:00:00 -- 0 Calma 5 Noroeste -- -- -- --
2019-03-26 01:00:00 -- 4 Noroeste 5 Noroeste -- -- -- --
2019-03-26 00:00:00 -- 4 Nordeste 11 Norte -- -- -- --
2019-03-25 23:00:00 -- 3 Noroeste 9 Norte -- -- -- --
2019-03-25 22:00:00 -- 5 Nordeste 15 Noroeste -- -- -- --
2019-03-25 21:00:00 -- 6 Norte 14 Norte -- -- -- --
2019-03-25 20:00:00 -- 6 Norte 16 Norte -- -- -- --
2019-03-25 19:00:00 -- 8 Norte 21 Noroeste -- -- -- --
2019-03-25 18:00:00 -- 11 Noroeste 18 Noroeste -- -- -- --
2019-03-25 17:00:00 -- 8 Noroeste 19 Noroeste -- -- -- --
2019-03-25 16:00:00 -- 9 Noroeste 23 Noroeste -- -- -- --
2019-03-25 15:00:00 -- 11 Noroeste 22 Noroeste -- -- -- --
2019-03-25 14:00:00 -- 12 Noroeste 22 Noroeste -- -- -- --
2019-03-25 13:00:00 -- 12 Noroeste 20 Noroeste -- -- -- --
2019-03-25 12:00:00 -- 10 Noroeste 18 Noroeste -- -- -- --
2019-03-25 11:00:00 -- 10 Noroeste 15 Noroeste -- -- -- --
2019-03-25 10:00:00 -- 4 Noroeste 6 Noroeste -- -- -- --
2019-03-25 09:00:00 -- 3 Noroeste 6 Sudeste -- -- -- --
2019-03-25 08:00:00 -- 3 Noroeste 4 Noroeste -- -- -- --
2019-03-25 07:00:00 -- 0 Calma 5 Sudeste -- -- -- --
2019-03-25 06:00:00 -- 3 Sudeste 9 Sudeste -- -- -- --
2019-03-25 05:00:00 -- 7 Sudeste 12 Sudeste -- -- -- --
2019-03-25 04:00:00 -- 3 Noroeste 9 Sudeste -- -- -- --
2019-03-25 03:00:00 -- 0 Calma 9 Sudeste -- -- -- --
2019-03-25 02:00:00 -- 5 Sudeste 8 Sudeste -- -- -- --
2019-03-25 01:00:00 -- 6 Sudeste 9 Sudeste -- -- -- --
2019-03-25 00:00:00 -- 3 Sudeste 8 Sudeste -- -- -- --